createdAt,value
2023-11-07T00:01:49.321Z,43.81
2023-11-07T00:04:17.127Z,43.80
2023-11-07T00:06:44.452Z,43.98
2023-11-07T00:09:11.384Z,44.14
2023-11-07T00:11:40.204Z,44.25
2023-11-07T00:14:07.228Z,44.23
2023-11-07T00:16:35.187Z,44.38
2023-11-07T00:19:03.345Z,44.45
2023-11-07T00:21:30.441Z,44.42
2023-11-07T00:23:57.219Z,44.44
2023-11-07T00:26:24.008Z,44.43
2023-11-07T00:28:51.552Z,44.61
2023-11-07T00:31:20.435Z,44.61
2023-11-07T00:33:47.392Z,44.71
2023-11-07T00:36:14.642Z,44.81
2023-11-07T00:38:41.640Z,44.76
2023-11-07T00:41:08.654Z,44.91
2023-11-07T00:43:35.889Z,45.02
2023-11-07T00:46:04.462Z,44.96
2023-11-07T00:48:31.924Z,44.88
2023-11-07T00:51:00.836Z,45.10
2023-11-07T00:53:28.099Z,45.32
2023-11-07T00:55:55.146Z,45.27
2023-11-07T00:58:22.076Z,45.19
2023-11-07T01:00:49.616Z,45.33
2023-11-07T01:03:16.534Z,45.51
2023-11-07T01:05:43.859Z,45.77
2023-11-07T01:08:12.210Z,45.98
2023-11-07T01:10:39.745Z,46.05
2023-11-07T01:13:06.911Z,46.19
2023-11-07T01:15:33.755Z,46.25
2023-11-07T01:18:01.603Z,46.28
2023-11-07T01:20:28.675Z,46.51
2023-11-07T01:22:55.803Z,46.85
2023-11-07T01:25:22.744Z,47.10
2023-11-07T01:27:49.807Z,47.19
2023-11-07T01:30:17.293Z,47.28
2023-11-07T01:32:44.248Z,47.32
2023-11-07T01:35:11.346Z,47.35
2023-11-07T01:37:38.296Z,47.56
2023-11-07T01:40:06.155Z,47.80
2023-11-07T01:42:42.405Z,47.77
2023-11-07T01:45:11.107Z,47.80
2023-11-07T01:47:39.848Z,47.69
2023-11-07T01:50:11.669Z,47.72
2023-11-07T01:52:42.016Z,47.65
2023-11-07T01:55:12.518Z,47.65
2023-11-07T01:57:42.541Z,47.73
2023-11-07T02:00:12.498Z,47.77
2023-11-07T02:02:42.969Z,47.84
2023-11-07T02:05:12.691Z,47.86
2023-11-07T02:07:40.027Z,48.03
2023-11-07T02:10:09.791Z,48.00
2023-11-07T02:12:36.677Z,47.95
2023-11-07T02:15:28.422Z,47.94
2023-11-07T02:17:55.948Z,47.93
2023-11-07T02:20:23.348Z,47.92
2023-11-07T02:22:54.252Z,47.88
2023-11-07T02:25:21.199Z,47.80
2023-11-07T02:27:48.767Z,47.96
2023-11-07T02:30:17.480Z,48.06
2023-11-07T02:32:44.981Z,48.29
2023-11-07T02:35:12.274Z,48.57
2023-11-07T02:37:40.009Z,48.69
2023-11-07T02:40:10.700Z,48.74
2023-11-07T02:42:37.604Z,48.57
2023-11-07T02:45:06.384Z,48.36
2023-11-07T02:47:34.166Z,48.24
2023-11-07T02:50:03.857Z,47.96
2023-11-07T02:52:31.924Z,47.99
2023-11-07T02:54:59.688Z,47.89
2023-11-07T02:57:26.483Z,47.76
2023-11-07T02:59:53.513Z,47.63
2023-11-07T03:02:21.645Z,47.54
2023-11-07T03:04:48.897Z,47.60
2023-11-07T03:07:15.843Z,47.61
2023-11-07T03:09:43.094Z,47.30
2023-11-07T03:12:13.416Z,47.00
2023-11-07T03:14:42.325Z,46.89
2023-11-07T03:17:09.568Z,46.89
2023-11-07T03:19:36.503Z,46.64
2023-11-07T03:22:03.536Z,46.45
2023-11-07T03:24:30.609Z,46.29
2023-11-07T03:26:57.492Z,46.15
2023-11-07T03:29:24.918Z,46.19
2023-11-07T03:31:54.402Z,46.24
2023-11-07T03:34:22.094Z,46.35
2023-11-07T03:36:49.013Z,46.46
2023-11-07T03:39:16.466Z,46.42
2023-11-07T03:41:45.699Z,46.59
2023-11-07T03:44:13.425Z,46.66
2023-11-07T03:46:41.713Z,46.90
2023-11-07T03:49:08.821Z,47.01
2023-11-07T03:51:35.826Z,47.25
2023-11-07T03:54:02.785Z,47.54
2023-11-07T03:56:29.818Z,47.69
2023-11-07T03:58:56.843Z,47.86
2023-11-07T04:01:23.789Z,47.84
2023-11-07T04:03:51.791Z,47.79
2023-11-07T04:06:18.970Z,47.82
2023-11-07T04:08:46.103Z,47.62
2023-11-07T04:11:14.428Z,47.47
2023-11-07T04:13:43.414Z,47.37
2023-11-07T04:16:10.389Z,47.25
2023-11-07T04:18:37.216Z,47.08
2023-11-07T04:21:05.004Z,46.94
2023-11-07T04:23:32.012Z,47.01
2023-11-07T04:25:59.161Z,47.15
2023-11-07T04:28:27.333Z,47.32
2023-11-07T04:30:54.351Z,47.55
2023-11-07T04:33:22.041Z,47.83
2023-11-07T04:35:49.688Z,48.24
2023-11-07T04:38:17.474Z,48.67
2023-11-07T04:40:44.309Z,49.06
2023-11-07T04:43:11.597Z,49.54
2023-11-07T04:45:38.807Z,49.88
2023-11-07T04:48:06.882Z,50.30
2023-11-07T04:50:35.509Z,50.58
2023-11-07T04:53:05.179Z,50.58
2023-11-07T04:55:35.066Z,50.76
2023-11-07T04:58:02.034Z,50.71
2023-11-07T05:00:29.287Z,50.74
2023-11-07T05:02:56.198Z,50.52
2023-11-07T05:05:23.283Z,50.52
2023-11-07T05:07:51.764Z,50.52
2023-11-07T05:10:20.658Z,50.57
2023-11-07T05:12:48.319Z,50.68
2023-11-07T05:15:15.315Z,50.85
2023-11-07T05:17:42.395Z,51.13
2023-11-07T05:20:11.161Z,51.34
2023-11-07T05:22:38.187Z,51.48
2023-11-07T05:25:09.674Z,51.69
2023-11-07T05:27:36.760Z,52.00
2023-11-07T05:30:04.833Z,52.22
2023-11-07T05:32:31.997Z,52.35
2023-11-07T05:34:58.927Z,52.57
2023-11-07T05:37:25.862Z,52.54
2023-11-07T05:39:52.699Z,52.54
2023-11-07T05:42:20.269Z,52.56
2023-11-07T05:44:47.199Z,52.56
2023-11-07T05:47:14.449Z,52.60
2023-11-07T05:49:41.303Z,52.63
2023-11-07T05:52:08.463Z,52.53
2023-11-07T05:54:35.396Z,52.41
2023-11-07T05:57:02.661Z,52.16
2023-11-07T05:59:29.713Z,51.97
2023-11-07T06:01:56.828Z,51.92
2023-11-07T06:04:31.577Z,51.97
2023-11-07T06:06:59.548Z,51.94
2023-11-07T06:09:30.873Z,51.97
2023-11-07T06:11:57.759Z,52.06
2023-11-07T06:14:25.199Z,52.01
2023-11-07T06:16:55.186Z,52.09
2023-11-07T06:19:22.358Z,52.07
2023-11-07T06:21:50.222Z,51.95
2023-11-07T06:24:17.433Z,51.89
2023-11-07T06:26:44.451Z,51.74
2023-11-07T06:29:13.233Z,51.56
2023-11-07T06:31:44.758Z,51.46
2023-11-07T06:34:12.671Z,51.43
2023-11-07T06:36:39.644Z,51.22
2023-11-07T06:39:07.134Z,51.30
2023-11-07T06:41:35.086Z,50.82
2023-11-07T06:44:02.018Z,50.45
2023-11-07T06:46:28.987Z,50.26
2023-11-07T06:48:59.320Z,50.17
2023-11-07T06:51:28.488Z,50.13
2023-11-07T06:53:55.433Z,49.96
2023-11-07T06:56:22.372Z,49.92
2023-11-07T06:58:49.314Z,49.68
2023-11-07T07:01:16.467Z,49.34
2023-11-07T07:03:43.309Z,49.16
2023-11-07T07:06:11.734Z,48.55
2023-11-07T07:08:38.878Z,47.62
2023-11-07T07:11:06.604Z,47.46
2023-11-07T07:13:34.278Z,47.67
2023-11-07T07:16:01.311Z,47.64
2023-11-07T07:18:28.571Z,47.60
2023-11-07T07:20:56.119Z,47.39
2023-11-07T07:23:26.247Z,47.26
2023-11-07T07:25:56.773Z,46.67
2023-11-07T07:28:26.381Z,46.28
2023-11-07T07:30:55.058Z,46.05
2023-11-07T07:33:25.066Z,45.65
2023-11-07T07:35:52.398Z,44.93
2023-11-07T07:38:19.642Z,44.58
2023-11-07T07:40:46.435Z,44.39
2023-11-07T07:43:13.367Z,43.87
2023-11-07T07:45:43.174Z,43.16
2023-11-07T07:48:11.455Z,42.81
2023-11-07T07:50:42.562Z,43.54
2023-11-07T07:53:09.849Z,44.50
2023-11-07T07:55:38.994Z,45.16
2023-11-07T07:58:07.116Z,45.55
2023-11-07T08:00:34.067Z,45.62
2023-11-07T08:03:07.927Z,45.61
2023-11-07T08:05:39.631Z,45.73
2023-11-07T08:08:07.487Z,45.64
2023-11-07T08:10:34.645Z,45.67
2023-11-07T08:13:06.302Z,45.62
2023-11-07T08:15:36.003Z,44.11
2023-11-07T08:18:06.775Z,42.26
2023-11-07T08:20:34.292Z,40.90
2023-11-07T08:23:02.363Z,39.47
2023-11-07T08:25:29.356Z,38.69
2023-11-07T08:27:56.667Z,38.35
2023-11-07T08:30:24.217Z,38.00
2023-11-07T08:32:52.133Z,39.06
2023-11-07T08:35:19.748Z,40.93
2023-11-07T08:37:50.893Z,42.35
2023-11-07T08:40:20.468Z,43.06
2023-11-07T08:42:49.081Z,43.54
2023-11-07T08:45:16.826Z,43.95
2023-11-07T08:47:44.871Z,44.24
2023-11-07T08:50:14.933Z,44.39
2023-11-07T08:52:41.854Z,44.47
2023-11-07T08:55:09.761Z,44.55
2023-11-07T08:57:42.262Z,44.40
2023-11-07T09:00:10.568Z,44.26
2023-11-07T09:02:39.015Z,44.20
2023-11-07T09:05:07.494Z,43.94
2023-11-07T09:07:35.690Z,44.00
2023-11-07T09:10:03.187Z,44.05
2023-11-07T09:12:30.488Z,44.46
2023-11-07T09:15:00.080Z,44.32
2023-11-07T09:17:28.041Z,44.04
2023-11-07T09:19:55.476Z,43.38
2023-11-07T09:22:23.954Z,43.02
2023-11-07T09:24:51.920Z,42.58
2023-11-07T09:27:19.110Z,42.44
2023-11-07T09:29:46.991Z,42.24
2023-11-07T09:32:14.502Z,42.01
2023-11-07T09:34:42.221Z,41.33
2023-11-07T09:37:09.405Z,41.24
2023-11-07T09:39:36.667Z,41.08
2023-11-07T09:42:08.611Z,41.02
2023-11-07T09:44:38.993Z,41.49
2023-11-07T09:47:06.924Z,42.21
2023-11-07T09:49:34.241Z,42.09
2023-11-07T09:52:05.424Z,41.77
2023-11-07T09:54:33.648Z,41.63
2023-11-07T09:57:07.260Z,41.45
2023-11-07T09:59:50.207Z,41.59
2023-11-07T10:02:17.561Z,42.07
2023-11-07T10:04:45.385Z,42.62
2023-11-07T10:07:13.602Z,42.93
2023-11-07T10:09:41.227Z,43.16
2023-11-07T10:12:16.299Z,43.19
2023-11-07T10:14:43.451Z,43.21
2023-11-07T10:17:23.502Z,43.03
2023-11-07T10:20:05.706Z,43.41
2023-11-07T10:22:51.186Z,43.79
2023-11-07T10:25:35.597Z,43.72
2023-11-07T10:28:03.602Z,43.44
2023-11-07T10:30:37.604Z,43.39
2023-11-07T10:33:04.639Z,43.57
2023-11-07T10:35:52.101Z,44.07
2023-11-07T10:38:19.402Z,43.73
2023-11-07T10:40:48.697Z,43.72
2023-11-07T10:43:34.420Z,43.46
2023-11-07T10:46:05.582Z,43.46
2023-11-07T10:48:42.991Z,43.38
2023-11-07T10:51:14.033Z,43.40
2023-11-07T10:53:45.281Z,43.51
2023-11-07T10:56:18.945Z,43.72
2023-11-07T10:58:55.482Z,43.87
2023-11-07T11:01:22.393Z,44.05
2023-11-07T11:03:52.924Z,43.96
2023-11-07T11:06:24.779Z,44.25
2023-11-07T11:08:55.077Z,44.06
2023-11-07T11:11:22.120Z,43.80
2023-11-07T11:13:49.176Z,43.56
2023-11-07T11:16:16.211Z,43.27
2023-11-07T11:18:57.037Z,42.72
2023-11-07T11:21:58.031Z,42.58
2023-11-07T11:24:41.071Z,42.41
2023-11-07T11:27:15.344Z,42.30
2023-11-07T11:29:49.833Z,41.91
2023-11-07T11:32:32.540Z,41.93
2023-11-07T11:35:28.416Z,42.02
2023-11-07T11:38:14.717Z,42.16
2023-11-07T11:41:00.188Z,42.15
2023-11-07T11:43:33.523Z,42.26
2023-11-07T11:46:29.936Z,42.17
2023-11-07T11:49:09.620Z,42.13
2023-11-07T11:51:41.345Z,42.29
2023-11-07T11:54:12.166Z,42.53
2023-11-07T11:56:51.256Z,42.85
2023-11-07T11:59:20.013Z,42.97
2023-11-07T12:01:50.805Z,43.14
2023-11-07T12:04:40.841Z,43.22
2023-11-07T12:07:11.068Z,43.51
2023-11-07T12:09:38.902Z,43.48
2023-11-07T12:12:06.825Z,43.49
2023-11-07T12:14:34.205Z,43.62
2023-11-07T12:17:01.481Z,43.76
2023-11-07T12:19:30.235Z,43.56
2023-11-07T12:22:00.193Z,43.41
2023-11-07T12:24:27.242Z,43.34
2023-11-07T12:26:54.282Z,43.18
2023-11-07T12:29:34.739Z,42.98
2023-11-07T12:32:03.975Z,42.99
2023-11-07T12:34:32.306Z,43.24
2023-11-07T12:37:10.359Z,43.34
2023-11-07T12:39:37.398Z,43.47
2023-11-07T12:42:05.521Z,43.70
2023-11-07T12:44:32.554Z,43.86
2023-11-07T12:46:59.603Z,44.25
2023-11-07T12:49:28.703Z,44.23
2023-11-07T12:51:56.601Z,44.18
2023-11-07T12:54:28.414Z,44.13
2023-11-07T12:56:55.855Z,44.13
2023-11-07T12:59:23.252Z,44.08
2023-11-07T13:01:50.296Z,43.86
2023-11-07T13:04:18.897Z,43.32
2023-11-07T13:06:59.305Z,43.23
2023-11-07T13:09:33.094Z,43.65
2023-11-07T13:12:10.129Z,43.83
2023-11-07T13:14:40.442Z,44.47
2023-11-07T13:17:08.952Z,44.58
2023-11-07T13:19:37.012Z,44.69
2023-11-07T13:22:04.561Z,44.82
2023-11-07T13:24:31.807Z,44.80
2023-11-07T13:26:59.877Z,44.30
2023-11-07T13:29:28.048Z,44.16
2023-11-07T13:31:55.600Z,44.09
2023-11-07T13:34:22.761Z,44.23
2023-11-07T13:36:49.726Z,44.37
2023-11-07T13:39:24.443Z,44.23
2023-11-07T13:41:52.043Z,43.66
2023-11-07T13:44:19.134Z,43.84
2023-11-07T13:46:47.417Z,44.21
2023-11-07T13:49:14.624Z,44.27
2023-11-07T13:51:42.141Z,44.10
2023-11-07T13:54:09.521Z,44.01
2023-11-07T13:56:37.046Z,43.77
2023-11-07T13:59:05.586Z,44.12
2023-11-07T14:01:32.680Z,44.57
2023-11-07T14:03:59.861Z,44.69
2023-11-07T14:06:28.009Z,44.65
2023-11-07T14:08:55.286Z,44.35
2023-11-07T14:11:22.403Z,44.52
2023-11-07T14:13:51.182Z,44.92
2023-11-07T14:16:18.931Z,45.37
2023-11-07T14:18:49.566Z,45.14
2023-11-07T14:21:17.842Z,45.09
2023-11-07T14:23:47.683Z,45.37
2023-11-07T14:26:15.833Z,45.36
2023-11-07T14:28:50.937Z,45.33
2023-11-07T14:31:26.436Z,45.62
2023-11-07T14:33:53.754Z,45.60
2023-11-07T14:36:20.992Z,45.48
2023-11-07T14:38:48.054Z,45.69
2023-11-07T14:41:15.208Z,45.59
2023-11-07T14:43:42.379Z,45.46
2023-11-07T14:46:10.836Z,45.45
2023-11-07T14:48:38.003Z,45.35
2023-11-07T14:51:05.660Z,45.67
2023-11-07T14:53:33.225Z,46.04
2023-11-07T14:56:00.360Z,46.07
2023-11-07T14:58:27.327Z,45.88
2023-11-07T15:00:54.754Z,45.81
2023-11-07T15:03:23.209Z,45.86
2023-11-07T15:05:52.327Z,45.85
2023-11-07T15:08:20.001Z,45.83
2023-11-07T15:10:47.043Z,45.96
2023-11-07T15:13:14.166Z,46.15
2023-11-07T15:15:41.809Z,46.64
2023-11-07T15:18:12.531Z,46.94
2023-11-07T15:20:40.762Z,47.44
2023-11-07T15:23:08.099Z,47.88
2023-11-07T15:25:35.816Z,47.89
2023-11-07T15:28:03.585Z,47.59
2023-11-07T15:30:35.511Z,47.67
2023-11-07T15:33:03.662Z,47.77
2023-11-07T15:35:35.169Z,48.01
2023-11-07T15:38:02.387Z,48.19
2023-11-07T15:40:29.527Z,48.46
2023-11-07T15:42:56.795Z,48.42
2023-11-07T15:45:23.839Z,48.51
2023-11-07T15:47:51.048Z,48.95
2023-11-07T15:50:18.264Z,48.66
2023-11-07T15:52:55.873Z,48.75
2023-11-07T15:55:32.593Z,48.43
2023-11-07T15:58:00.057Z,48.44
2023-11-07T16:00:28.673Z,48.49
2023-11-07T16:02:55.871Z,48.44
2023-11-07T16:05:29.744Z,48.42
2023-11-07T16:07:56.860Z,48.71
2023-11-07T16:10:26.707Z,48.65
2023-11-07T16:12:54.324Z,48.52
2023-11-07T16:15:21.862Z,48.39
2023-11-07T16:17:49.798Z,48.35
2023-11-07T16:20:20.718Z,48.22
2023-11-07T16:22:48.208Z,48.20
2023-11-07T16:25:16.544Z,48.50
2023-11-07T16:27:43.876Z,48.76
2023-11-07T16:30:12.307Z,48.68
2023-11-07T16:32:40.062Z,48.29
2023-11-07T16:35:07.686Z,48.17
2023-11-07T16:37:35.028Z,48.17
2023-11-07T16:40:08.891Z,48.47
2023-11-07T16:42:36.807Z,48.88
2023-11-07T16:45:05.880Z,49.07
2023-11-07T16:47:34.861Z,48.93
2023-11-07T16:50:02.451Z,48.79
2023-11-07T16:52:29.550Z,48.83
2023-11-07T16:54:56.741Z,49.08
2023-11-07T16:57:23.943Z,48.85
2023-11-07T16:59:51.798Z,48.66
2023-11-07T17:02:19.314Z,48.70
2023-11-07T17:04:46.486Z,48.68
2023-11-07T17:07:13.831Z,48.87
2023-11-07T17:09:41.459Z,49.03
2023-11-07T17:12:08.726Z,48.75
2023-11-07T17:14:37.689Z,48.74
2023-11-07T17:17:05.901Z,48.74
2023-11-07T17:19:32.943Z,48.43
2023-11-07T17:21:59.903Z,48.46
2023-11-07T17:24:28.209Z,48.47
2023-11-07T17:26:55.661Z,48.31
2023-11-07T17:29:22.974Z,48.40
2023-11-07T17:31:50.152Z,48.28
2023-11-07T17:34:17.694Z,48.25
2023-11-07T17:36:46.688Z,48.03
2023-11-07T17:39:16.123Z,47.91
2023-11-07T17:41:46.917Z,47.92
2023-11-07T17:44:18.581Z,48.36
2023-11-07T17:46:45.490Z,48.62
2023-11-07T17:49:15.012Z,49.02
2023-11-07T17:51:45.585Z,49.41
2023-11-07T17:54:13.670Z,49.77
2023-11-07T17:56:41.266Z,50.02
2023-11-07T17:59:11.914Z,50.31
2023-11-07T18:01:39.654Z,50.48
2023-11-07T18:04:07.306Z,50.58
2023-11-07T18:06:34.667Z,50.47
2023-11-07T18:09:02.346Z,50.92
2023-11-07T18:11:34.274Z,51.02
2023-11-07T18:14:03.099Z,51.14
2023-11-07T18:16:30.457Z,51.17
2023-11-07T18:18:59.455Z,51.31
2023-11-07T18:21:28.109Z,51.49
2023-11-07T18:23:55.869Z,51.81
2023-11-07T18:26:23.515Z,51.79
2023-11-07T18:28:50.778Z,51.88
2023-11-07T18:31:18.248Z,52.08
2023-11-07T18:33:49.421Z,52.94
2023-11-07T18:36:18.580Z,52.92
2023-11-07T18:38:46.292Z,53.20
2023-11-07T18:41:13.320Z,53.44
2023-11-07T18:43:40.369Z,53.75
2023-11-07T18:46:11.417Z,54.04
2023-11-07T18:48:40.157Z,53.96
2023-11-07T18:51:07.695Z,54.31
2023-11-07T18:53:43.499Z,54.21
2023-11-07T18:56:13.920Z,54.19
2023-11-07T18:58:42.320Z,54.17
2023-11-07T19:01:09.992Z,54.16
2023-11-07T19:03:37.332Z,55.01
2023-11-07T19:06:07.324Z,55.08
2023-11-07T19:08:34.912Z,55.05
2023-11-07T19:11:02.246Z,55.17
2023-11-07T19:13:29.295Z,55.24
2023-11-07T19:15:56.345Z,55.43
2023-11-07T19:18:25.214Z,55.61
2023-11-07T19:20:54.641Z,55.73
2023-11-07T19:23:23.237Z,55.82
2023-11-07T19:25:53.029Z,55.76
2023-11-07T19:28:24.184Z,55.64
2023-11-07T19:30:51.221Z,55.78
2023-11-07T19:33:19.881Z,56.02
2023-11-07T19:35:48.734Z,55.85
2023-11-07T19:38:15.690Z,55.90
2023-11-07T19:40:44.527Z,55.85
2023-11-07T19:43:11.586Z,55.78
2023-11-07T19:45:43.561Z,55.98
2023-11-07T19:48:14.522Z,55.94
2023-11-07T19:50:41.755Z,56.00
2023-11-07T19:53:12.011Z,56.22
2023-11-07T19:55:39.270Z,56.03
2023-11-07T19:58:06.064Z,56.03
2023-11-07T20:00:33.258Z,56.10
2023-11-07T20:03:00.975Z,56.24
2023-11-07T20:05:28.125Z,56.39
2023-11-07T20:07:56.757Z,56.54
2023-11-07T20:10:25.278Z,56.50
2023-11-07T20:12:52.741Z,56.52
2023-11-07T20:15:20.028Z,56.51
2023-11-07T20:17:47.187Z,56.68
2023-11-07T20:20:15.517Z,56.77
2023-11-07T20:22:44.515Z,56.83
2023-11-07T20:25:11.553Z,57.04
2023-11-07T20:27:40.405Z,57.17
2023-11-07T20:30:11.481Z,57.36
2023-11-07T20:32:38.699Z,57.52
2023-11-07T20:35:06.639Z,57.60
2023-11-07T20:37:33.668Z,57.58
2023-11-07T20:40:00.915Z,57.92
2023-11-07T20:42:28.484Z,57.96
2023-11-07T20:45:01.309Z,58.04
2023-11-07T20:47:36.131Z,58.15
2023-11-07T20:50:06.648Z,58.27
2023-11-07T20:52:33.928Z,58.31
2023-11-07T20:55:01.200Z,58.46
2023-11-07T20:57:28.259Z,58.58
2023-11-07T20:59:55.198Z,58.65
2023-11-07T21:02:22.354Z,58.83
2023-11-07T21:04:49.548Z,58.76
2023-11-07T21:07:16.761Z,58.88
2023-11-07T21:09:43.786Z,59.01
2023-11-07T21:12:10.837Z,58.94
2023-11-07T21:14:39.429Z,58.92
2023-11-07T21:17:06.487Z,59.05
2023-11-07T21:19:36.787Z,59.14
2023-11-07T21:22:06.634Z,59.18
2023-11-07T21:24:33.891Z,59.36
2023-11-07T21:27:01.207Z,59.55
2023-11-07T21:29:30.418Z,59.65
2023-11-07T21:31:59.291Z,59.75
2023-11-07T21:34:26.418Z,59.80
2023-11-07T21:36:53.662Z,59.92
2023-11-07T21:39:21.988Z,59.99
2023-11-07T21:41:49.482Z,60.06
2023-11-07T21:44:16.591Z,60.11
2023-11-07T21:46:43.420Z,60.15
2023-11-07T21:49:10.499Z,60.29
2023-11-07T21:51:37.860Z,60.35
2023-11-07T21:54:05.726Z,60.55
2023-11-07T21:56:32.839Z,60.66
2023-11-07T21:58:59.678Z,60.77
2023-11-07T22:01:27.030Z,60.72
2023-11-07T22:03:54.478Z,60.95
2023-11-07T22:06:22.116Z,61.06
2023-11-07T22:08:49.919Z,61.15
2023-11-07T22:11:16.871Z,61.23
2023-11-07T22:13:43.909Z,61.37
2023-11-07T22:16:11.484Z,61.46
2023-11-07T22:18:39.773Z,61.64
2023-11-07T22:21:07.588Z,61.82
2023-11-07T22:23:35.283Z,61.68
2023-11-07T22:26:02.212Z,61.80
2023-11-07T22:28:31.543Z,61.80
2023-11-07T22:30:59.904Z,61.85
2023-11-07T22:33:27.211Z,61.91
2023-11-07T22:35:54.499Z,62.03
2023-11-07T22:38:21.658Z,61.97
2023-11-07T22:40:51.644Z,61.92
2023-11-07T22:43:19.530Z,61.89
2023-11-07T22:45:47.736Z,62.01
2023-11-07T22:48:14.971Z,62.08
2023-11-07T22:50:42.105Z,62.14
2023-11-07T22:53:10.327Z,62.11
2023-11-07T22:55:37.654Z,62.32
2023-11-07T22:58:05.594Z,62.41
2023-11-07T23:00:41.618Z,62.64
2023-11-07T23:03:11.619Z,62.71
2023-11-07T23:05:40.297Z,62.67
2023-11-07T23:08:10.781Z,62.75
2023-11-07T23:10:39.493Z,62.86
2023-11-07T23:13:07.557Z,63.01
2023-11-07T23:15:35.340Z,63.15
2023-11-07T23:18:02.349Z,63.09
2023-11-07T23:20:31.092Z,63.09
2023-11-07T23:22:59.207Z,63.04
2023-11-07T23:25:27.089Z,63.12
2023-11-07T23:27:54.222Z,63.36
2023-11-07T23:30:21.911Z,63.37
2023-11-07T23:32:49.859Z,63.39
2023-11-07T23:35:18.698Z,63.47
2023-11-07T23:37:45.620Z,63.53
2023-11-07T23:40:13.146Z,63.50
2023-11-07T23:42:41.673Z,63.52
2023-11-07T23:45:09.217Z,63.30
2023-11-07T23:47:36.642Z,63.27
2023-11-07T23:50:05.808Z,63.26
2023-11-07T23:52:33.599Z,63.41
2023-11-07T23:55:01.465Z,63.79
2023-11-07T23:57:29.223Z,63.67
2023-11-07T23:59:56.891Z,63.65
